createdAt,value
2023-02-11T00:02:19.687Z,74.60
2023-02-11T00:04:48.925Z,74.50
2023-02-11T00:07:18.124Z,74.20
2023-02-11T00:09:47.313Z,74.30
2023-02-11T00:12:19.690Z,74.10
2023-02-11T00:14:49.893Z,74.10
2023-02-11T00:17:19.163Z,73.90
2023-02-11T00:19:52.482Z,74.10
2023-02-11T00:22:21.807Z,74.40
2023-02-11T00:24:51.095Z,74.40
2023-02-11T00:27:20.434Z,74.30
2023-02-11T00:29:49.713Z,74.10
2023-02-11T00:32:18.998Z,74.00
2023-02-11T00:34:52.276Z,74.10
2023-02-11T00:37:22.484Z,74.20
2023-02-11T00:39:51.800Z,74.20
2023-02-11T00:42:21.122Z,74.30
2023-02-11T00:44:50.370Z,74.50
2023-02-11T00:47:19.614Z,74.50
2023-02-11T00:49:48.902Z,74.70
2023-02-11T00:52:18.289Z,74.30
2023-02-11T00:54:47.524Z,74.40
2023-02-11T00:57:16.720Z,74.60
2023-02-11T00:59:45.924Z,74.50
2023-02-11T01:02:15.119Z,74.60
2023-02-11T01:04:45.498Z,74.70
2023-02-11T01:07:14.778Z,74.60
2023-02-11T01:09:44.028Z,74.60
2023-02-11T01:12:13.354Z,74.60
2023-02-11T01:14:43.736Z,74.70
2023-02-11T01:17:13.372Z,74.80
2023-02-11T01:19:43.051Z,74.60
2023-02-11T01:22:12.773Z,74.70
2023-02-11T01:24:41.957Z,74.70
2023-02-11T01:27:11.188Z,74.70
2023-02-11T01:29:40.438Z,74.60
2023-02-11T01:32:09.781Z,74.40
2023-02-11T01:34:39.099Z,74.50
2023-02-11T01:37:08.336Z,74.70
2023-02-11T01:39:37.664Z,74.60
2023-02-11T01:42:07.783Z,74.60
2023-02-11T01:44:40.281Z,74.60
2023-02-11T01:47:10.251Z,74.60
2023-02-11T01:49:46.489Z,74.70
2023-02-11T01:52:35.340Z,74.60
2023-02-11T01:55:29.186Z,74.50
2023-02-11T01:58:05.197Z,74.50
2023-02-11T02:00:38.850Z,74.50
2023-02-11T02:03:22.539Z,74.40
2023-02-11T02:06:00.709Z,74.40
2023-02-11T02:08:50.272Z,74.40
2023-02-11T02:11:19.805Z,74.40
2023-02-11T02:13:49.341Z,74.50
2023-02-11T02:16:23.051Z,74.50
2023-02-11T02:19:01.132Z,74.80
2023-02-11T02:22:07.252Z,74.70
2023-02-11T02:25:46.235Z,74.50
2023-02-11T02:29:05.640Z,74.40
2023-02-11T02:32:21.029Z,74.40
2023-02-11T02:35:16.950Z,74.30
2023-02-11T02:38:29.788Z,74.60
2023-02-11T02:41:25.097Z,74.50
2023-02-11T02:43:54.776Z,74.30
2023-02-11T02:46:31.628Z,74.40
2023-02-11T02:49:01.283Z,74.70
2023-02-11T02:51:47.953Z,75.00
2023-02-11T02:54:53.293Z,74.70
2023-02-11T02:58:11.870Z,74.70
2023-02-11T03:01:02.524Z,74.50
2023-02-11T03:04:05.731Z,74.40
2023-02-11T03:07:08.364Z,74.50
2023-02-11T03:09:58.539Z,74.80
2023-02-11T03:12:32.659Z,74.70
2023-02-11T03:15:05.712Z,74.80
2023-02-11T03:17:39.185Z,74.70
2023-02-11T03:20:14.257Z,74.40
2023-02-11T03:22:53.138Z,74.40
2023-02-11T03:25:30.024Z,74.40
2023-02-11T03:28:53.062Z,74.30
2023-02-11T03:31:27.662Z,74.30
2023-02-11T03:34:33.790Z,74.50
2023-02-11T03:37:21.774Z,74.50
2023-02-11T03:40:05.313Z,74.50
2023-02-11T03:42:54.697Z,74.40
2023-02-11T03:45:26.502Z,74.30
2023-02-11T03:48:22.520Z,74.30
2023-02-11T03:50:55.455Z,74.10
2023-02-11T03:53:24.675Z,74.20
2023-02-11T03:55:58.289Z,74.20
2023-02-11T03:58:27.783Z,74.20
2023-02-11T04:00:56.988Z,74.40
2023-02-11T04:03:26.250Z,74.40
2023-02-11T04:05:55.499Z,74.40
2023-02-11T04:08:24.663Z,74.40
2023-02-11T04:10:54.019Z,74.40
2023-02-11T04:13:23.341Z,74.30
2023-02-11T04:15:52.825Z,74.90
2023-02-11T04:18:22.256Z,74.30
2023-02-11T04:20:51.587Z,74.20
2023-02-11T04:23:20.849Z,74.10
2023-02-11T04:25:51.271Z,74.00
2023-02-11T04:28:20.695Z,74.00
2023-02-11T04:30:51.644Z,74.00
2023-02-11T04:33:20.959Z,74.00
2023-02-11T04:35:50.697Z,73.90
2023-02-11T04:38:19.952Z,73.80
2023-02-11T04:40:49.126Z,73.90
2023-02-11T04:43:18.525Z,74.20
2023-02-11T04:45:47.853Z,74.10
2023-02-11T04:48:17.256Z,73.90
2023-02-11T04:50:46.431Z,73.70
2023-02-11T04:53:15.590Z,73.70
2023-02-11T04:55:44.834Z,73.50
2023-02-11T04:58:14.107Z,73.40
2023-02-11T05:00:43.515Z,73.40
2023-02-11T05:03:14.938Z,73.20
2023-02-11T05:05:44.606Z,73.10
2023-02-11T05:08:13.929Z,72.80
2023-02-11T05:10:48.098Z,72.60
2023-02-11T05:13:17.359Z,72.50
2023-02-11T05:15:46.546Z,72.70
2023-02-11T05:18:15.784Z,72.90
2023-02-11T05:20:45.254Z,72.80
2023-02-11T05:23:14.518Z,72.70
2023-02-11T05:25:43.696Z,72.80
2023-02-11T05:28:12.958Z,72.60
2023-02-11T05:30:42.312Z,72.60
2023-02-11T05:33:11.497Z,72.30
2023-02-11T05:35:40.764Z,71.80
2023-02-11T05:38:10.013Z,71.70
2023-02-11T05:40:40.734Z,71.60
2023-02-11T05:43:10.166Z,71.40
2023-02-11T05:45:39.370Z,71.40
2023-02-11T05:48:08.544Z,71.20
2023-02-11T05:50:37.758Z,71.60
2023-02-11T05:53:07.693Z,71.30
2023-02-11T05:55:37.254Z,71.50
2023-02-11T05:58:08.001Z,71.50
2023-02-11T06:00:37.517Z,71.40
2023-02-11T06:03:07.095Z,71.20
2023-02-11T06:05:36.279Z,71.30
2023-02-11T06:08:05.745Z,71.40
2023-02-11T06:10:35.127Z,71.30
2023-02-11T06:13:04.814Z,71.30
2023-02-11T06:15:34.057Z,71.20
2023-02-11T06:18:03.536Z,71.20
2023-02-11T06:20:32.818Z,71.30
2023-02-11T06:23:02.160Z,71.00
2023-02-11T06:25:31.350Z,70.80
2023-02-11T06:28:00.618Z,70.90
2023-02-11T06:30:29.843Z,71.00
2023-02-11T06:32:59.074Z,71.20
2023-02-11T06:35:28.410Z,71.20
2023-02-11T06:37:57.599Z,71.10
2023-02-11T06:40:26.937Z,70.90
2023-02-11T06:42:56.177Z,70.60
2023-02-11T06:45:25.478Z,70.40
2023-02-11T06:47:54.907Z,70.30
2023-02-11T06:50:24.127Z,70.10
2023-02-11T06:52:53.299Z,70.00
2023-02-11T06:55:22.504Z,70.50
2023-02-11T06:57:51.817Z,69.80
2023-02-11T07:00:21.244Z,69.60
2023-02-11T07:02:50.481Z,69.40
2023-02-11T07:05:19.948Z,69.60
2023-02-11T07:07:49.200Z,69.60
2023-02-11T07:10:18.459Z,69.80
2023-02-11T07:12:47.646Z,69.60
2023-02-11T07:15:16.974Z,69.00
2023-02-11T07:17:46.179Z,68.70
2023-02-11T07:20:16.919Z,68.50
2023-02-11T07:22:46.151Z,68.00
2023-02-11T07:25:15.838Z,67.90
2023-02-11T07:27:45.051Z,67.80
2023-02-11T07:30:15.053Z,67.40
2023-02-11T07:32:44.400Z,67.10
2023-02-11T07:35:14.851Z,66.70
2023-02-11T07:37:44.183Z,66.40
2023-02-11T07:40:13.423Z,66.50
2023-02-11T07:42:42.623Z,66.40
2023-02-11T07:45:12.729Z,66.20
2023-02-11T07:47:42.826Z,65.70
2023-02-11T07:50:12.091Z,65.30
2023-02-11T07:52:41.373Z,64.80
2023-02-11T07:55:11.572Z,64.30
2023-02-11T07:57:41.792Z,63.80
2023-02-11T08:00:12.104Z,63.70
2023-02-11T08:02:41.399Z,63.70
2023-02-11T08:05:11.181Z,63.50
2023-02-11T08:07:40.573Z,63.60
2023-02-11T08:10:10.074Z,63.50
2023-02-11T08:12:39.257Z,63.30
2023-02-11T08:15:09.120Z,63.00
2023-02-11T08:17:38.569Z,62.80
2023-02-11T08:20:08.319Z,62.90
2023-02-11T08:22:37.528Z,62.80
2023-02-11T08:25:07.208Z,62.20
2023-02-11T08:27:36.539Z,61.70
2023-02-11T08:30:06.560Z,61.00
2023-02-11T08:32:35.936Z,60.40
2023-02-11T08:35:08.018Z,60.30
2023-02-11T08:37:37.219Z,60.10
2023-02-11T08:40:06.964Z,59.60
2023-02-11T08:42:36.237Z,59.20
2023-02-11T08:45:06.501Z,58.90
2023-02-11T08:47:35.869Z,58.30
2023-02-11T08:50:06.313Z,57.60
2023-02-11T08:52:36.689Z,56.70
2023-02-11T08:55:06.593Z,56.30
2023-02-11T08:57:35.908Z,55.80
2023-02-11T09:00:06.144Z,55.50
2023-02-11T09:02:35.683Z,55.50
2023-02-11T09:05:05.239Z,55.70
2023-02-11T09:07:34.452Z,56.00
2023-02-11T09:10:06.723Z,56.40
2023-02-11T09:12:36.032Z,56.60
2023-02-11T09:15:06.065Z,56.80
2023-02-11T09:17:35.288Z,56.80
2023-02-11T09:20:09.126Z,56.60
2023-02-11T09:22:39.878Z,56.40
2023-02-11T09:25:09.662Z,56.30
2023-02-11T09:27:39.144Z,56.20
2023-02-11T09:30:09.896Z,55.60
2023-02-11T09:32:39.133Z,55.20
2023-02-11T09:35:08.644Z,55.20
2023-02-11T09:37:37.946Z,55.40
2023-02-11T09:40:07.615Z,55.80
2023-02-11T09:42:47.615Z,55.60
2023-02-11T09:45:27.537Z,55.10
2023-02-11T09:48:16.418Z,54.90
2023-02-11T09:51:00.413Z,55.40
2023-02-11T09:53:40.275Z,56.20
2023-02-11T09:56:15.671Z,56.80
2023-02-11T09:58:45.845Z,57.10
2023-02-11T10:01:43.600Z,57.50
2023-02-11T10:04:48.520Z,57.80
2023-02-11T10:07:42.141Z,57.90
2023-02-11T10:10:41.460Z,56.80
2023-02-11T10:13:10.610Z,56.00
2023-02-11T10:16:02.838Z,55.60
2023-02-11T10:18:38.179Z,55.50
2023-02-11T10:21:20.173Z,55.30
2023-02-11T10:23:56.888Z,55.30
2023-02-11T10:26:38.691Z,55.50
2023-02-11T10:29:42.166Z,55.60
2023-02-11T10:33:00.883Z,55.30
2023-02-11T10:35:31.938Z,55.00
2023-02-11T10:38:01.487Z,54.70
2023-02-11T10:40:32.121Z,54.70
2023-02-11T10:43:07.915Z,54.60
2023-02-11T10:45:51.888Z,54.40
2023-02-11T10:48:51.564Z,53.90
2023-02-11T10:51:26.679Z,53.10
2023-02-11T10:54:04.865Z,53.40
2023-02-11T10:56:44.516Z,53.70
2023-02-11T10:59:27.978Z,53.60
2023-02-11T11:02:04.349Z,53.30
2023-02-11T11:04:33.792Z,53.30
2023-02-11T11:07:29.526Z,53.10
2023-02-11T11:10:45.225Z,53.00
2023-02-11T11:13:25.152Z,52.90
2023-02-11T11:16:13.824Z,52.70
2023-02-11T11:18:53.700Z,52.50
2023-02-11T11:21:28.917Z,52.20
2023-02-11T11:24:02.479Z,52.10
2023-02-11T11:26:44.716Z,51.80
2023-02-11T11:29:26.945Z,51.10
2023-02-11T11:32:05.533Z,50.30
2023-02-11T11:34:42.104Z,49.30
2023-02-11T11:37:25.792Z,48.70
2023-02-11T11:40:16.993Z,48.50
2023-02-11T11:42:46.341Z,48.10
2023-02-11T11:45:23.037Z,47.80
2023-02-11T11:48:03.473Z,47.70
2023-02-11T11:50:55.781Z,47.50
2023-02-11T11:53:34.800Z,47.40
2023-02-11T11:56:22.726Z,47.20
2023-02-11T11:58:53.209Z,46.80
2023-02-11T12:01:40.171Z,46.60
2023-02-11T12:04:37.097Z,46.80
2023-02-11T12:07:27.808Z,46.70
2023-02-11T12:10:31.997Z,47.00
2023-02-11T12:13:33.505Z,47.00
2023-02-11T12:16:40.062Z,46.90
2023-02-11T12:19:36.088Z,46.80
2023-02-11T12:22:21.459Z,47.00
2023-02-11T12:25:00.540Z,47.60
2023-02-11T12:28:01.879Z,47.90
2023-02-11T12:31:20.391Z,48.40
2023-02-11T12:34:07.474Z,48.50
2023-02-11T12:37:08.014Z,48.30
2023-02-11T12:40:02.251Z,47.80
2023-02-11T12:43:16.689Z,47.70
2023-02-11T12:46:23.045Z,47.90
2023-02-11T12:49:06.856Z,47.60
2023-02-11T12:52:05.465Z,47.40
2023-02-11T12:54:49.218Z,46.80
2023-02-11T12:57:33.366Z,46.30
2023-02-11T13:00:36.515Z,45.90
2023-02-11T13:03:11.961Z,45.90
2023-02-11T13:05:54.144Z,45.90
2023-02-11T13:08:30.767Z,45.50
2023-02-11T13:11:15.089Z,45.20
2023-02-11T13:13:59.429Z,45.20
2023-02-11T13:16:40.399Z,44.50
2023-02-11T13:19:30.584Z,44.40
2023-02-11T13:22:17.760Z,44.70
2023-02-11T13:25:06.227Z,44.70
2023-02-11T13:27:59.075Z,45.70
2023-02-11T13:30:39.405Z,46.10
2023-02-11T13:33:33.604Z,46.00
2023-02-11T13:36:04.721Z,46.20
2023-02-11T13:38:35.302Z,46.30
2023-02-11T13:41:28.568Z,46.50
2023-02-11T13:44:23.632Z,46.90
2023-02-11T13:46:59.608Z,47.00
2023-02-11T13:49:42.427Z,47.00
2023-02-11T13:52:37.467Z,47.00
2023-02-11T13:55:16.386Z,46.70
2023-02-11T13:57:45.844Z,46.80
2023-02-11T14:00:33.663Z,46.90
2023-02-11T14:03:30.477Z,47.30
2023-02-11T14:06:27.357Z,47.60
2023-02-11T14:09:17.260Z,47.40
2023-02-11T14:11:55.387Z,47.70
2023-02-11T14:14:36.129Z,47.80
2023-02-11T14:17:08.549Z,48.10
2023-02-11T14:19:47.209Z,48.60
2023-02-11T14:22:28.303Z,49.10
2023-02-11T14:25:05.095Z,49.50
2023-02-11T14:27:43.708Z,49.60
2023-02-11T14:30:39.261Z,49.80
2023-02-11T14:34:07.286Z,50.10
2023-02-11T14:36:58.145Z,50.30
2023-02-11T14:39:54.776Z,50.30
2023-02-11T14:42:28.196Z,50.60
2023-02-11T14:45:06.836Z,50.80
2023-02-11T14:48:20.680Z,51.00
2023-02-11T14:50:58.760Z,51.20
2023-02-11T14:53:31.858Z,51.10
2023-02-11T14:56:01.117Z,51.10
2023-02-11T14:58:32.976Z,51.20
2023-02-11T15:01:35.173Z,51.30
2023-02-11T15:04:23.171Z,51.50
2023-02-11T15:06:53.952Z,51.80
2023-02-11T15:09:41.961Z,52.00
2023-02-11T15:12:28.307Z,52.50
2023-02-11T15:15:00.871Z,52.80
2023-02-11T15:17:32.884Z,52.90
2023-02-11T15:20:02.793Z,53.10
2023-02-11T15:22:37.508Z,53.30
2023-02-11T15:25:17.237Z,53.80
2023-02-11T15:27:53.061Z,54.20
2023-02-11T15:30:22.252Z,54.40
2023-02-11T15:33:00.677Z,55.00
2023-02-11T15:35:35.216Z,55.50
2023-02-11T15:38:05.461Z,56.20
2023-02-11T15:40:37.474Z,56.60
2023-02-11T15:43:10.263Z,56.90
2023-02-11T15:46:01.909Z,57.20
2023-02-11T15:48:52.630Z,57.40
2023-02-11T15:51:31.305Z,57.80
2023-02-11T15:54:18.998Z,58.10
2023-02-11T15:56:52.584Z,58.40
2023-02-11T15:59:33.266Z,58.50
2023-02-11T16:02:22.447Z,58.90
2023-02-11T16:04:58.739Z,59.20
2023-02-11T16:07:51.429Z,59.40
2023-02-11T16:10:32.445Z,59.60
2023-02-11T16:13:07.706Z,59.80
2023-02-11T16:15:56.959Z,60.10
2023-02-11T16:18:40.187Z,60.40
2023-02-11T16:21:17.890Z,60.70
2023-02-11T16:23:54.975Z,60.90
2023-02-11T16:26:43.576Z,60.90
2023-02-11T16:29:18.345Z,60.90
2023-02-11T16:31:50.311Z,61.00
2023-02-11T16:34:25.365Z,61.00
2023-02-11T16:36:54.645Z,61.00
2023-02-11T16:39:23.909Z,61.00
2023-02-11T16:41:53.137Z,61.20
2023-02-11T16:44:22.661Z,61.20
2023-02-11T16:46:53.677Z,61.20
2023-02-11T16:49:38.324Z,61.20
2023-02-11T16:52:13.813Z,61.30
2023-02-11T16:54:43.110Z,61.40
2023-02-11T16:57:20.139Z,61.50
2023-02-11T16:59:50.116Z,61.70
2023-02-11T17:02:25.258Z,61.90
2023-02-11T17:04:56.436Z,62.10
2023-02-11T17:07:26.093Z,62.20
2023-02-11T17:09:55.938Z,62.20
2023-02-11T17:12:25.659Z,62.40
2023-02-11T17:14:54.950Z,62.50
2023-02-11T17:17:24.190Z,62.80
2023-02-11T17:19:53.590Z,63.10
2023-02-11T17:22:22.760Z,63.30
2023-02-11T17:24:52.014Z,63.40
2023-02-11T17:27:21.401Z,63.40
2023-02-11T17:29:51.531Z,63.50
2023-02-11T17:32:20.797Z,63.60
2023-02-11T17:34:50.140Z,63.70
2023-02-11T17:37:19.362Z,63.90
2023-02-11T17:39:51.013Z,64.00
2023-02-11T17:42:20.327Z,64.30
2023-02-11T17:44:49.595Z,64.60
2023-02-11T17:47:18.847Z,64.80
2023-02-11T17:49:48.033Z,65.10
2023-02-11T17:52:18.246Z,65.40
2023-02-11T17:54:47.665Z,65.70
2023-02-11T17:57:16.874Z,66.00
2023-02-11T17:59:46.348Z,66.30
2023-02-11T18:02:15.686Z,66.60
2023-02-11T18:04:45.457Z,66.80
2023-02-11T18:07:14.880Z,67.10
2023-02-11T18:09:44.144Z,67.30
2023-02-11T18:12:13.536Z,67.70
2023-02-11T18:14:42.794Z,68.10
2023-02-11T18:17:11.995Z,68.40
2023-02-11T18:19:41.197Z,68.90
2023-02-11T18:22:10.636Z,69.20
2023-02-11T18:24:40.273Z,69.40
2023-02-11T18:27:09.924Z,69.70
2023-02-11T18:29:39.283Z,70.00
2023-02-11T18:32:08.610Z,70.30
2023-02-11T18:34:40.327Z,70.50
2023-02-11T18:37:10.336Z,70.70
2023-02-11T18:39:39.888Z,70.80
2023-02-11T18:42:10.167Z,71.00
2023-02-11T18:44:39.384Z,71.30
2023-02-11T18:47:08.624Z,71.60
2023-02-11T18:49:37.941Z,71.80
2023-02-11T18:52:07.141Z,72.00
2023-02-11T18:54:36.358Z,72.20
2023-02-11T18:57:05.786Z,72.30
2023-02-11T18:59:35.353Z,72.40
2023-02-11T19:02:04.651Z,72.80
2023-02-11T19:04:37.381Z,73.10
2023-02-11T19:07:06.765Z,73.40
2023-02-11T19:09:36.324Z,73.60
2023-02-11T19:12:07.980Z,73.90
2023-02-11T19:14:37.369Z,74.00
2023-02-11T19:17:08.595Z,74.10
2023-02-11T19:19:38.018Z,74.20
2023-02-11T19:22:10.516Z,74.20
2023-02-11T19:24:40.177Z,74.20
2023-02-11T19:27:10.599Z,74.20
2023-02-11T19:29:39.867Z,74.30
2023-02-11T19:32:10.587Z,74.40
2023-02-11T19:34:41.599Z,74.40
2023-02-11T19:37:13.141Z,74.50
2023-02-11T19:39:43.529Z,74.60
2023-02-11T19:42:13.530Z,74.60
2023-02-11T19:44:42.755Z,74.60
2023-02-11T19:47:13.485Z,74.70
2023-02-11T19:49:42.882Z,74.80
2023-02-11T19:52:12.262Z,74.70
2023-02-11T19:54:41.494Z,74.80
2023-02-11T19:57:10.914Z,74.80
2023-02-11T19:59:40.425Z,74.90
2023-02-11T20:02:13.593Z,74.90
2023-02-11T20:04:42.845Z,75.00
2023-02-11T20:07:12.126Z,75.10
2023-02-11T20:09:42.651Z,75.20
2023-02-11T20:12:12.171Z,75.30
2023-02-11T20:14:41.401Z,75.30
2023-02-11T20:17:10.614Z,75.50
2023-02-11T20:19:39.817Z,75.50
2023-02-11T20:22:09.046Z,75.70
2023-02-11T20:24:38.290Z,75.80
2023-02-11T20:27:08.542Z,75.90
2023-02-11T20:29:39.889Z,76.00
2023-02-11T20:32:10.671Z,76.20
2023-02-11T20:34:40.078Z,76.20
2023-02-11T20:37:10.495Z,76.40
2023-02-11T20:39:41.980Z,76.30
2023-02-11T20:42:12.463Z,76.30
2023-02-11T20:44:41.728Z,76.30
2023-02-11T20:47:12.424Z,76.30
2023-02-11T20:49:41.664Z,76.20
2023-02-11T20:52:11.010Z,76.50
2023-02-11T20:54:40.367Z,76.60
2023-02-11T20:57:09.566Z,76.80
2023-02-11T20:59:38.834Z,76.90
2023-02-11T21:02:12.518Z,77.10
2023-02-11T21:04:41.854Z,77.20
2023-02-11T21:07:11.218Z,77.40
2023-02-11T21:09:40.534Z,77.50
2023-02-11T21:12:09.754Z,77.50
2023-02-11T21:14:39.052Z,77.80
2023-02-11T21:17:08.504Z,77.90
2023-02-11T21:19:37.792Z,77.90
2023-02-11T21:22:07.506Z,78.00
2023-02-11T21:24:37.019Z,78.20
2023-02-11T21:27:06.272Z,78.20
2023-02-11T21:29:45.737Z,78.30
2023-02-11T21:32:22.255Z,78.40
2023-02-11T21:34:51.542Z,78.50
2023-02-11T21:37:21.451Z,78.80
2023-02-11T21:39:50.708Z,78.90
2023-02-11T21:42:19.880Z,78.90
2023-02-11T21:44:49.191Z,79.20
2023-02-11T21:47:18.533Z,79.10
2023-02-11T21:49:47.703Z,79.20
2023-02-11T21:52:16.957Z,79.20
2023-02-11T21:54:49.778Z,78.90
2023-02-11T21:57:19.195Z,78.90
2023-02-11T21:59:48.431Z,79.10
2023-02-11T22:02:17.618Z,79.40
2023-02-11T22:04:46.860Z,79.40
2023-02-11T22:07:16.097Z,79.20
2023-02-11T22:09:45.404Z,79.10
2023-02-11T22:12:14.718Z,79.00
2023-02-11T22:14:44.075Z,79.10
2023-02-11T22:17:13.324Z,79.10
2023-02-11T22:19:42.650Z,79.10
2023-02-11T22:22:13.543Z,79.20
2023-02-11T22:24:42.902Z,79.00
2023-02-11T22:27:13.767Z,79.10
2023-02-11T22:29:43.871Z,79.00
2023-02-11T22:32:13.168Z,79.20
2023-02-11T22:34:42.607Z,79.20
2023-02-11T22:37:11.998Z,79.30
2023-02-11T22:39:42.727Z,79.20
2023-02-11T22:42:12.070Z,78.90
2023-02-11T22:44:41.386Z,79.60
2023-02-11T22:47:10.630Z,79.00
2023-02-11T22:49:41.479Z,78.90
2023-02-11T22:52:10.721Z,78.80
2023-02-11T22:54:39.941Z,78.70
2023-02-11T22:57:09.361Z,78.70
2023-02-11T22:59:38.567Z,78.50
2023-02-11T23:02:08.346Z,78.40
2023-02-11T23:04:37.677Z,78.30
2023-02-11T23:07:06.918Z,78.10
2023-02-11T23:09:36.119Z,77.80
2023-02-11T23:12:05.794Z,77.80
2023-02-11T23:14:34.968Z,78.10
2023-02-11T23:17:04.225Z,78.40
2023-02-11T23:19:33.564Z,77.90
2023-02-11T23:22:03.589Z,77.70
2023-02-11T23:24:32.973Z,77.70
2023-02-11T23:27:02.436Z,77.70
2023-02-11T23:29:31.734Z,77.70
2023-02-11T23:32:01.053Z,77.60
2023-02-11T23:34:30.341Z,77.40
2023-02-11T23:36:59.716Z,77.30
2023-02-11T23:39:30.271Z,77.30
2023-02-11T23:41:59.624Z,77.20
2023-02-11T23:44:29.130Z,77.20
2023-02-11T23:46:58.372Z,77.10
2023-02-11T23:49:27.633Z,76.90
2023-02-11T23:51:56.889Z,76.70
2023-02-11T23:54:26.053Z,76.60
2023-02-11T23:56:55.287Z,76.60
2023-02-11T23:59:24.530Z,76.50
